Thursday, October 23, 2014, 5:19 AM EDT
Back to Local

KCXY, Harrisburg Capital City

Location: New Cumberland, PA, United States Lat: 40.217
Local Time: 5:19 AM EDT ( 9:19 GMT) Lon: -76.85
Time Zone: US/Eastern Elev: 347 ft

Show me the last for .
Show Decoded

2014-10-23 05:11 METAR KCXY 230911Z AUTO 33009KT 10SM OVC030 12/06 A2988 RMK AO2 T01220056 =
2014-10-23 04:56 METAR KCXY 230856Z AUTO 33010KT 10SM OVC029 12/06 A2989 RMK AO2 SLP121 T01220056
                 55005 =
2014-10-23 04:40 METAR KCXY 230840Z AUTO 34011G19KT 10SM OVC029 12/06 A2989 RMK AO2 T01220056 =
2014-10-23 04:11 METAR KCXY 230811Z AUTO 33011G17KT 10SM BKN030 OVC070 12/06 A2989 RMK AO2
                 T01220061 =
2014-10-23 03:56 METAR KCXY 230756Z AUTO 34013KT 10SM BKN029 OVC070 12/06 A2988 RMK AO2 SLP120
                 T01220061 =
2014-10-23 03:48 METAR KCXY 230748Z AUTO 35013G24KT 10SM SCT029 OVC070 12/06 A2988 RMK AO2
                 T01220061 =
2014-10-23 02:56 METAR KCXY 230656Z AUTO 35013KT 10SM OVC027 12/06 A2989 RMK AO2 SLP123 T01220061
                 =
2014-10-23 01:56 METAR KCXY 230556Z AUTO 32013G19KT 10SM OVC026 12/06 A2990 RMK AO2 PK WND
                 32027/0502 SLP126 T01220061 10122 20117 56019 =
2014-10-23 00:56 METAR KCXY 230456Z AUTO 34016G24KT 10SM OVC026 12/06 A2992 RMK AO2 SLP133
                 T01170061 401330117 =
2014-10-22 23:56 METAR KCXY 230356Z AUTO 31009G20KT 10SM OVC026 12/06 A2993 RMK AO2 SLP135
                 T01170061 =
2014-10-22 22:56 METAR KCXY 230256Z AUTO 33014G21KT 10SM OVC026 12/06 A2996 RMK AO2 SLP145
                 T01170061 58007 =
2014-10-22 21:56 METAR KCXY 230156Z AUTO 33010G23KT 10SM OVC027 12/06 A2997 RMK AO2 SLP149
                 T01220061 =
2014-10-22 20:56 METAR KCXY 230056Z AUTO 33013G20KT 10SM OVC028 12/06 A2998 RMK AO2 SLP153
                 T01220056 =
2014-10-22 19:56 METAR KCXY 222356Z 34012G22KT 10SM OVC028 12/06 A2998 RMK AO2 SLP153 60000
                 T01220061 10133 20122 51004 =
2014-10-22 18:56 METAR KCXY 222256Z 35010G25KT 10SM OVC026 12/06 A2998 RMK AO2 PK WND 34028/2236
                 SLP152 T01220061 =
2014-10-22 17:56 METAR KCXY 222156Z 35010G22KT 10SM OVC028 13/07 A2997 RMK AO2 RAB2058E10 SLP151
                 P0000 T01280067 =
2014-10-22 16:56 METAR KCXY 222056Z 36012G17KT 10SM OVC027 13/07 A2997 RMK AO2 SLP148 T01330072
                 55003 =
2014-10-22 14:56 METAR KCXY 221856Z 34011G21KT 10SM OVC023 13/08 A2997 RMK AO2 SLP150 T01280078 =
2014-10-22 13:56 METAR KCXY 221756Z 34012G18KT 10SM BKN020 BKN040 OVC055 12/09 A2997 RMK AO2
                 RAE02 SLP151 P0000 60006 T01220089 10133 20117 58003 =
2014-10-22 12:56 METAR KCXY 221656Z 34008KT 10SM -RA BKN022 BKN040 OVC050 12/09 A2998 RMK AO2
                 SLP155 P0002 T01220094 =
2014-10-22 11:56 METAR KCXY 221556Z 36007KT 10SM -RA OVC020 12/09 A2999 RMK AO2 SLP157 P0003
                 T01220089 =
2014-10-22 10:56 METAR KCXY 221456Z 35009G15KT 10SM -RA BKN022 BKN030 OVC035 12/09 A2998 RMK AO2
                 SLP155 P0001 60001 T01220089 51012 =
2014-10-22 09:56 METAR KCXY 221356Z 35009KT 10SM -RA BKN023 OVC030 13/09 A2998 RMK AO2 RAB44
                 SLP152 P0000 T01280089 =
2014-10-22 08:56 METAR KCXY 221256Z 36008G14KT 10SM OVC025 13/08 A2997 RMK AO2 SLP149 T01330083 =
2014-10-22 08:11 METAR KCXY 221211Z 34011G16KT 10SM SCT027 BKN032 BKN065 13/08 A2995 RMK AO2
                 T01330083 =
2014-10-22 07:56 METAR KCXY 221156Z 34009KT 10SM BKN029 OVC060 13/08 A2995 RMK AO2 SLP143
                 T01330083 10133 20128 53012 =
2014-10-22 06:56 METAR KCXY 221056Z 34006KT 10SM FEW028 BKN036 BKN085 13/08 A2993 RMK AO2 SLP138
                 T01280083 =
2014-10-22 06:15 METAR KCXY 221015Z AUTO 34010KT 10SM SCT027 BKN095 OVC110 13/08 A2992 RMK AO2
                 T01330083 =
2014-10-22 05:56 METAR KCXY 220956Z AUTO 33009G15KT 10SM BKN023 OVC095 13/09 A2992 RMK AO2 SLP134
                 T01330089 =

Support USWX by starting your Amazon purchase here.